Lewis Center, Ohio
Current Conditions -  °F | °C
As of 5:39 AM on Sunday 23 Nov 2014 (Local Time) from KDLZ Reporting Station
Drizzle Drizzle  
Wind Chill: 43°   Ceiling: 6000
Heat Index: 43°   Visibility: 10mi
Dew Point: 36°   Wind: 0mph
Humidity: 76%   Direction: NA
Pressure: 30.03"   Gusts: NA
Location:  40.2°N, 83.01°W
Report Text: KDLZ 231039Z AUTO 00000KT 10SM DZ SCT050 OVC060 06/02 A3003 RMK AO2
Loading
Personal Weather Stations






























Interactive Weather Map New forecast layout! Learn more

10-Day Weather Forecast

Advertisements
Track Severe Weather on mobile